createdAt,value
2023-03-03T00:00:51.591Z,10.37
2023-03-03T00:03:23.676Z,10.53
2023-03-03T00:05:49.863Z,10.97
2023-03-03T00:08:15.711Z,11.87
2023-03-03T00:10:41.543Z,9.40
2023-03-03T00:13:22.214Z,10.87
2023-03-03T00:18:21.974Z,9.30
2023-03-03T00:20:51.909Z,10.23
2023-03-03T00:23:37.515Z,8.20
2023-03-03T00:26:16.002Z,9.50
2023-03-03T00:28:45.765Z,11.73
2023-03-03T00:31:16.749Z,9.82
2023-03-03T00:34:19.592Z,12.93
2023-03-03T00:36:46.169Z,9.07
2023-03-03T00:39:18.665Z,12.00
2023-03-03T00:41:44.541Z,12.13
2023-03-03T00:44:29.365Z,12.57
2023-03-03T00:46:56.085Z,10.30
2023-03-03T00:49:26.293Z,10.87
2023-03-03T00:51:53.059Z,11.43
2023-03-03T00:54:18.864Z,13.33
2023-03-03T00:56:44.675Z,10.23
2023-03-03T00:59:10.411Z,12.30
2023-03-03T01:01:36.183Z,12.80
2023-03-03T01:04:01.926Z,11.00
2023-03-03T01:06:27.730Z,12.97
2023-03-03T01:08:56.588Z,12.30
2023-03-03T01:11:23.696Z,11.73
2023-03-03T01:13:49.938Z,13.43
2023-03-03T01:16:15.922Z,12.80
2023-03-03T01:18:41.630Z,10.87
2023-03-03T01:21:07.739Z,12.43
2023-03-03T01:23:33.706Z,12.10
2023-03-03T01:25:59.415Z,12.23
2023-03-03T01:28:25.203Z,13.53
2023-03-03T01:30:50.932Z,12.57
2023-03-03T01:33:16.874Z,13.40
2023-03-03T01:35:43.259Z,12.47
2023-03-03T01:38:08.972Z,12.33
2023-03-03T01:40:34.703Z,11.73
2023-03-03T01:43:00.783Z,11.63
2023-03-03T01:45:27.838Z,12.30
2023-03-03T01:47:53.538Z,12.77
2023-03-03T01:50:25.723Z,12.50
2023-03-03T01:52:51.481Z,10.77
2023-03-03T01:55:22.390Z,9.60
2023-03-03T01:57:51.883Z,9.50
2023-03-03T02:00:17.959Z,9.20
2023-03-03T02:02:44.642Z,11.33
2023-03-03T02:05:10.738Z,8.67
2023-03-03T02:07:37.440Z,10.17
2023-03-03T02:10:22.002Z,9.33
2023-03-03T02:12:49.108Z,10.33
2023-03-03T02:15:24.498Z,9.77
2023-03-03T02:17:52.533Z,9.20
2023-03-03T02:20:30.548Z,9.67
2023-03-03T02:22:56.277Z,9.37
2023-03-03T02:25:26.834Z,9.27
2023-03-03T02:30:20.144Z,8.60
2023-03-03T02:32:45.863Z,8.43
2023-03-03T02:35:28.186Z,10.00
2023-03-03T02:37:56.157Z,9.90
2023-03-03T02:40:23.088Z,9.93
2023-03-03T02:42:50.000Z,9.77
2023-03-03T02:45:15.826Z,10.33
2023-03-03T02:47:48.107Z,10.53
2023-03-03T02:50:14.514Z,9.83
2023-03-03T02:52:40.229Z,9.57
2023-03-03T02:55:06.368Z,10.87
2023-03-03T02:57:32.089Z,11.00
2023-03-03T02:59:57.818Z,10.00
2023-03-03T03:02:23.733Z,10.60
2023-03-03T03:04:49.495Z,11.90
2023-03-03T03:07:15.205Z,11.90
2023-03-03T03:09:41.003Z,11.27
2023-03-03T03:12:06.962Z,11.13
2023-03-03T03:14:32.692Z,12.37
2023-03-03T03:16:58.480Z,12.07
2023-03-03T03:19:24.242Z,12.80
2023-03-03T03:21:49.955Z,11.70
2023-03-03T03:24:15.658Z,12.73
2023-03-03T03:26:41.358Z,12.27
2023-03-03T03:29:07.249Z,12.10
2023-03-03T03:31:33.097Z,12.53
2023-03-03T03:33:59.924Z,12.00
2023-03-03T03:36:27.387Z,11.13
2023-03-03T03:38:53.381Z,11.20
2023-03-03T03:41:19.126Z,10.47
2023-03-03T03:43:44.835Z,11.53
2023-03-03T03:46:10.636Z,11.33
2023-03-03T03:48:36.502Z,13.57
2023-03-03T03:51:02.381Z,9.53
2023-03-03T03:53:28.081Z,12.87
2023-03-03T03:55:53.876Z,12.13
2023-03-03T03:58:19.738Z,13.83
2023-03-03T04:00:46.214Z,15.23
2023-03-03T04:03:13.820Z,13.27
2023-03-03T04:05:39.592Z,13.70
2023-03-03T04:08:05.469Z,14.30
2023-03-03T04:10:31.245Z,15.30
2023-03-03T04:12:56.994Z,14.37
2023-03-03T04:15:22.728Z,15.20
2023-03-03T04:17:48.465Z,14.20
2023-03-03T04:20:15.137Z,12.80
2023-03-03T04:22:41.240Z,13.37
2023-03-03T04:25:07.276Z,14.17
2023-03-03T04:27:36.452Z,12.23
2023-03-03T04:30:02.824Z,13.77
2023-03-03T04:32:29.830Z,11.87
2023-03-03T04:35:07.012Z,12.60
2023-03-03T04:37:33.296Z,12.40
2023-03-03T04:39:59.049Z,12.47
2023-03-03T04:42:24.788Z,12.77
2023-03-03T04:44:50.515Z,12.10
2023-03-03T04:47:16.214Z,12.93
2023-03-03T04:49:42.169Z,14.63
2023-03-03T04:52:07.882Z,14.23
2023-03-03T04:54:33.623Z,12.73
2023-03-03T04:56:59.354Z,12.93
2023-03-03T04:59:25.060Z,11.70
2023-03-03T05:01:50.826Z,12.50
2023-03-03T05:04:16.752Z,13.60
2023-03-03T05:06:42.559Z,12.70
2023-03-03T05:09:09.048Z,12.23
2023-03-03T05:11:34.870Z,12.50
2023-03-03T05:14:02.464Z,14.53
2023-03-03T05:16:28.734Z,14.10
2023-03-03T05:18:54.482Z,13.80
2023-03-03T05:21:20.787Z,12.57
2023-03-03T05:23:46.521Z,13.67
2023-03-03T05:26:12.579Z,12.93
2023-03-03T05:28:38.306Z,12.37
2023-03-03T05:31:04.371Z,12.90
2023-03-03T05:33:39.347Z,12.57
2023-03-03T05:36:05.236Z,11.80
2023-03-03T05:38:31.076Z,13.70
2023-03-03T05:40:56.786Z,13.83
2023-03-03T05:43:22.591Z,12.83
2023-03-03T05:45:53.589Z,14.03
2023-03-03T05:48:19.314Z,14.23
2023-03-03T05:50:45.105Z,14.17
2023-03-03T05:53:11.320Z,16.07
2023-03-03T05:55:37.175Z,15.87
2023-03-03T05:58:03.113Z,15.03
2023-03-03T06:00:28.976Z,17.50
2023-03-03T06:02:54.751Z,15.63
2023-03-03T06:05:20.608Z,15.13
2023-03-03T06:07:46.511Z,16.77
2023-03-03T06:10:12.560Z,15.53
2023-03-03T06:12:38.727Z,14.87
2023-03-03T06:15:06.048Z,12.40
2023-03-03T06:17:31.851Z,13.27
2023-03-03T06:19:57.616Z,15.20
2023-03-03T06:22:23.609Z,15.63
2023-03-03T06:24:49.656Z,13.80
2023-03-03T06:27:15.537Z,12.17
2023-03-03T06:29:41.390Z,12.17
2023-03-03T06:32:07.376Z,13.10
2023-03-03T06:34:45.845Z,11.53
2023-03-03T06:37:11.800Z,12.40
2023-03-03T06:39:37.766Z,11.97
2023-03-03T06:42:03.692Z,11.70
2023-03-03T06:44:29.611Z,11.23
2023-03-03T06:46:57.627Z,11.67
2023-03-03T06:49:23.534Z,10.27
2023-03-03T06:51:50.286Z,10.30
2023-03-03T06:54:17.751Z,10.33
2023-03-03T06:56:44.069Z,9.67
2023-03-03T06:59:12.068Z,11.73
2023-03-03T07:01:39.110Z,10.60
2023-03-03T07:04:15.484Z,11.40
2023-03-03T07:06:41.483Z,11.20
2023-03-03T07:09:36.761Z,11.13
2023-03-03T07:12:09.765Z,8.37
2023-03-03T07:14:40.004Z,9.37
2023-03-03T07:17:09.839Z,10.32
2023-03-03T07:19:36.010Z,10.20
2023-03-03T07:22:11.504Z,10.07
2023-03-03T07:24:38.512Z,10.17
2023-03-03T07:27:37.613Z,9.40
2023-03-03T07:30:15.992Z,8.60
2023-03-03T07:32:44.678Z,8.70
2023-03-03T07:35:38.122Z,9.63
2023-03-03T07:38:18.851Z,8.93
2023-03-03T07:43:33.748Z,10.43
2023-03-03T07:46:03.026Z,8.90
2023-03-03T07:48:36.216Z,9.23
2023-03-03T07:51:04.749Z,9.87
2023-03-03T07:53:34.169Z,9.70
2023-03-03T07:56:00.619Z,9.50
2023-03-03T07:58:37.874Z,9.93
2023-03-03T08:01:22.856Z,9.03
2023-03-03T08:03:50.497Z,10.27
2023-03-03T08:06:34.937Z,9.30
2023-03-03T08:09:23.838Z,8.73
2023-03-03T08:12:01.525Z,9.50
2023-03-03T08:14:29.728Z,9.03
2023-03-03T08:16:56.492Z,8.80
2023-03-03T08:19:22.917Z,8.53
2023-03-03T08:21:48.799Z,8.60
2023-03-03T08:24:14.858Z,9.63
2023-03-03T08:26:41.255Z,10.17
2023-03-03T08:29:07.215Z,9.43
2023-03-03T08:31:41.375Z,9.20
2023-03-03T08:34:07.827Z,9.50
2023-03-03T08:36:34.834Z,10.53
2023-03-03T08:39:01.058Z,8.77
2023-03-03T08:41:26.919Z,9.07
2023-03-03T08:43:52.803Z,7.57
2023-03-03T08:46:18.915Z,9.43
2023-03-03T08:48:45.036Z,10.05
2023-03-03T08:51:10.820Z,10.13
2023-03-03T08:53:37.717Z,8.57
2023-03-03T08:56:04.995Z,7.80
2023-03-03T08:58:35.501Z,7.85
2023-03-03T09:01:02.638Z,7.40
2023-03-03T09:03:43.991Z,7.82
2023-03-03T09:06:10.296Z,8.05
2023-03-03T09:08:36.560Z,8.60
2023-03-03T09:11:02.552Z,7.57
2023-03-03T09:13:29.003Z,7.75
2023-03-03T09:15:55.591Z,7.28
2023-03-03T09:18:41.646Z,7.45
2023-03-03T09:21:26.170Z,7.68
2023-03-03T09:23:55.773Z,9.73
2023-03-03T09:26:21.594Z,8.65
2023-03-03T09:28:47.919Z,8.75
2023-03-03T09:31:21.621Z,9.63
2023-03-03T09:33:57.156Z,8.48
2023-03-03T09:36:34.875Z,9.13
2023-03-03T09:39:02.034Z,9.00
2023-03-03T09:41:40.170Z,7.60
2023-03-03T09:44:27.742Z,8.75
2023-03-03T09:47:10.585Z,9.93
2023-03-03T09:49:53.915Z,9.73
2023-03-03T09:52:39.142Z,10.38
2023-03-03T09:55:14.984Z,10.43
2023-03-03T09:58:09.942Z,9.57
2023-03-03T10:00:48.799Z,9.57
2023-03-03T10:03:46.207Z,10.20
2023-03-03T10:06:18.044Z,9.90
2023-03-03T10:08:51.723Z,11.32
2023-03-03T10:11:21.116Z,9.65
2023-03-03T10:14:01.688Z,11.00
2023-03-03T10:16:52.231Z,10.23
2023-03-03T10:19:24.066Z,9.13
2023-03-03T10:21:52.969Z,9.68
2023-03-03T10:24:29.614Z,10.82
2023-03-03T10:27:13.587Z,8.98
2023-03-03T10:29:40.038Z,10.10
2023-03-03T10:32:19.938Z,10.77
2023-03-03T10:34:58.520Z,10.35
2023-03-03T10:37:31.565Z,11.38
2023-03-03T10:40:05.465Z,8.77
2023-03-03T10:42:53.152Z,7.55
2023-03-03T10:45:37.488Z,8.15
2023-03-03T10:48:09.403Z,9.23
2023-03-03T10:50:47.524Z,10.85
2023-03-03T10:53:23.321Z,10.07
2023-03-03T10:56:09.098Z,9.75
2023-03-03T10:58:43.774Z,10.90
2023-03-03T11:01:12.665Z,10.15
2023-03-03T11:04:01.328Z,12.43
2023-03-03T11:06:30.062Z,10.32
2023-03-03T11:08:59.893Z,10.88
2023-03-03T11:11:34.890Z,12.17
2023-03-03T11:14:01.024Z,12.90
2023-03-03T11:16:28.016Z,12.27
2023-03-03T11:19:05.077Z,12.18
2023-03-03T11:21:34.237Z,12.30
2023-03-03T11:24:14.674Z,11.77
2023-03-03T11:26:55.508Z,11.27
2023-03-03T11:31:47.348Z,11.80
2023-03-03T11:34:32.132Z,13.15
2023-03-03T11:37:03.696Z,13.05
2023-03-03T11:39:29.749Z,12.88
2023-03-03T11:42:04.791Z,12.57
2023-03-03T11:44:41.304Z,13.77
2023-03-03T11:47:31.594Z,12.27
2023-03-03T11:50:17.055Z,11.20
2023-03-03T11:53:06.276Z,12.38
2023-03-03T11:55:32.129Z,12.30
2023-03-03T11:58:05.204Z,13.10
2023-03-03T12:00:47.345Z,11.18
2023-03-03T12:03:25.615Z,11.93
2023-03-03T12:06:12.520Z,12.15
2023-03-03T12:08:39.417Z,12.02
2023-03-03T12:11:25.444Z,14.10
2023-03-03T12:13:54.853Z,13.55
2023-03-03T12:16:29.862Z,12.50
2023-03-03T12:19:06.362Z,12.38
2023-03-03T12:21:52.768Z,11.52
2023-03-03T12:24:26.204Z,11.63
2023-03-03T12:27:09.136Z,11.43
2023-03-03T12:29:40.851Z,10.98
2023-03-03T12:32:07.056Z,11.45
2023-03-03T12:34:55.144Z,10.95
2023-03-03T12:37:24.225Z,12.23
2023-03-03T12:39:50.296Z,11.70
2023-03-03T12:42:23.352Z,12.77
2023-03-03T12:45:01.842Z,12.27
2023-03-03T12:47:29.554Z,11.27
2023-03-03T12:50:11.032Z,11.77
2023-03-03T12:52:55.545Z,11.88
2023-03-03T12:55:24.550Z,12.18
2023-03-03T12:58:15.658Z,10.55
2023-03-03T13:01:02.163Z,11.02
2023-03-03T13:03:53.295Z,9.07
2023-03-03T13:06:30.330Z,11.05
2023-03-03T13:09:02.443Z,9.32
2023-03-03T13:11:53.994Z,9.48
2023-03-03T13:14:29.438Z,10.00
2023-03-03T13:17:02.238Z,10.00
2023-03-03T13:19:51.807Z,10.13
2023-03-03T13:22:24.700Z,10.07
2023-03-03T13:24:57.749Z,9.55
2023-03-03T13:27:25.591Z,10.90
2023-03-03T13:30:12.093Z,10.75
2023-03-03T13:32:43.276Z,9.77
2023-03-03T13:35:19.496Z,10.82
2023-03-03T13:37:47.866Z,10.45
2023-03-03T13:40:14.179Z,9.70
2023-03-03T13:42:50.270Z,10.85
2023-03-03T13:45:25.178Z,10.85
2023-03-03T13:47:57.384Z,12.50
2023-03-03T13:50:27.660Z,11.48
2023-03-03T13:53:13.323Z,10.95
2023-03-03T13:55:50.883Z,11.27
2023-03-03T13:58:35.078Z,11.57
2023-03-03T14:01:03.481Z,11.13
2023-03-03T14:04:04.048Z,11.57
2023-03-03T14:06:32.521Z,10.82
2023-03-03T14:09:06.027Z,10.02
2023-03-03T14:11:39.298Z,9.40
2023-03-03T14:14:25.524Z,9.93
2023-03-03T14:16:54.296Z,10.77
2023-03-03T14:19:20.147Z,9.27
2023-03-03T14:21:55.858Z,9.65
2023-03-03T14:24:24.685Z,10.60
2023-03-03T14:26:52.171Z,9.82
2023-03-03T14:29:30.438Z,11.35
2023-03-03T14:32:01.140Z,10.27
2023-03-03T14:34:42.751Z,11.65
2023-03-03T14:37:23.278Z,9.27
2023-03-03T14:40:00.813Z,9.70
2023-03-03T14:42:32.316Z,10.05
2023-03-03T14:45:00.254Z,11.25
2023-03-03T14:47:27.635Z,10.30
2023-03-03T14:49:54.895Z,11.48
2023-03-03T14:52:23.322Z,11.00
2023-03-03T14:54:54.795Z,10.68
2023-03-03T14:57:24.188Z,9.82
2023-03-03T14:59:57.247Z,9.98
2023-03-03T15:02:35.918Z,10.75
2023-03-03T15:05:25.293Z,10.30
2023-03-03T15:07:56.989Z,12.43
2023-03-03T15:10:34.335Z,9.98
2023-03-03T15:13:28.199Z,11.07
2023-03-03T15:16:00.530Z,9.73
2023-03-03T15:18:28.527Z,10.38
2023-03-03T15:21:15.483Z,10.38
2023-03-03T15:23:41.299Z,9.70
2023-03-03T15:26:15.528Z,9.43
2023-03-03T15:29:01.203Z,11.20
2023-03-03T15:31:30.365Z,9.98
2023-03-03T15:34:11.394Z,9.95
2023-03-03T15:36:46.542Z,9.75
2023-03-03T15:39:15.656Z,9.10
2023-03-03T15:41:53.104Z,11.18
2023-03-03T15:44:25.944Z,11.82
2023-03-03T15:47:14.159Z,10.40
2023-03-03T15:49:55.025Z,9.27
2023-03-03T15:54:57.757Z,8.90
2023-03-03T15:57:26.898Z,9.82
2023-03-03T15:59:53.111Z,10.88
2023-03-03T16:02:38.859Z,10.00
2023-03-03T16:05:20.025Z,9.93
2023-03-03T16:07:49.969Z,10.25
2023-03-03T16:10:22.219Z,9.70
2023-03-03T16:13:07.145Z,10.05
2023-03-03T16:15:35.936Z,9.70
2023-03-03T16:18:08.271Z,10.43
2023-03-03T16:20:39.860Z,10.60
2023-03-03T16:23:12.346Z,10.07
2023-03-03T16:25:58.121Z,10.55
2023-03-03T16:28:35.428Z,10.35
2023-03-03T16:31:10.184Z,9.52
2023-03-03T16:34:14.845Z,9.68
2023-03-03T16:36:43.745Z,9.73
2023-03-03T16:39:17.654Z,9.63
2023-03-03T16:41:46.302Z,9.13
2023-03-03T16:44:22.816Z,11.45
2023-03-03T16:46:49.259Z,8.73
2023-03-03T16:49:25.220Z,9.48
2023-03-03T16:52:06.985Z,10.00
2023-03-03T16:54:44.268Z,9.48
2023-03-03T16:57:19.190Z,9.00
2023-03-03T16:59:49.787Z,9.88
2023-03-03T17:02:25.015Z,9.50
2023-03-03T17:05:16.555Z,9.88
2023-03-03T17:07:46.878Z,11.73
2023-03-03T17:10:31.552Z,10.70
2023-03-03T17:13:17.221Z,10.55
2023-03-03T17:15:50.305Z,10.50
2023-03-03T17:18:26.312Z,9.57
2023-03-03T17:20:57.407Z,9.98
2023-03-03T17:23:40.587Z,10.13
2023-03-03T17:26:09.725Z,10.80
2023-03-03T17:28:44.591Z,10.18
2023-03-03T17:31:30.851Z,9.43
2023-03-03T17:34:00.889Z,9.27
2023-03-03T17:36:36.122Z,10.98
2023-03-03T17:39:08.801Z,10.15
2023-03-03T17:41:41.023Z,9.50
2023-03-03T17:44:23.996Z,11.05
2023-03-03T17:46:54.868Z,10.40
2023-03-03T17:49:29.851Z,10.95
2023-03-03T17:52:15.235Z,10.57
2023-03-03T17:55:06.593Z,10.30
2023-03-03T17:57:39.453Z,10.50
2023-03-03T18:00:40.885Z,11.70
2023-03-03T18:03:21.380Z,11.10
2023-03-03T18:05:47.170Z,11.32
2023-03-03T18:08:31.614Z,10.55
2023-03-03T18:11:00.493Z,11.30
2023-03-03T18:13:45.232Z,10.82
2023-03-03T18:16:23.202Z,12.27
2023-03-03T18:18:49.090Z,11.15
2023-03-03T18:21:23.069Z,11.80
2023-03-03T18:23:49.300Z,10.70
2023-03-03T18:26:34.481Z,12.05
2023-03-03T18:29:09.300Z,10.40
2023-03-03T18:31:53.717Z,12.13
2023-03-03T18:34:19.742Z,11.45
2023-03-03T18:36:54.670Z,11.88
2023-03-03T18:39:40.449Z,10.73
2023-03-03T18:42:31.982Z,12.27
2023-03-03T18:45:09.156Z,11.98
2023-03-03T18:47:53.780Z,10.88
2023-03-03T18:50:36.133Z,11.38
2023-03-03T18:53:08.057Z,11.13
2023-03-03T18:55:50.750Z,11.02
2023-03-03T18:58:17.099Z,11.05
2023-03-03T19:00:51.028Z,10.55
2023-03-03T19:03:24.795Z,12.23
2023-03-03T19:05:57.279Z,10.50
2023-03-03T19:08:42.674Z,10.98
2023-03-03T19:11:28.481Z,12.02
2023-03-03T19:14:12.056Z,11.70
2023-03-03T19:16:38.235Z,12.00
2023-03-03T19:19:07.697Z,11.50
2023-03-03T19:21:35.156Z,12.55
2023-03-03T19:24:02.908Z,12.98
2023-03-03T19:26:28.845Z,12.50
2023-03-03T19:28:59.540Z,12.13
2023-03-03T19:34:22.307Z,11.30
2023-03-03T19:36:50.919Z,11.85
2023-03-03T19:39:32.119Z,12.52
2023-03-03T19:41:57.914Z,13.40
2023-03-03T19:44:42.960Z,12.07
2023-03-03T19:47:13.497Z,11.40
2023-03-03T19:49:51.195Z,10.77
2023-03-03T19:52:23.039Z,12.02
2023-03-03T19:54:58.560Z,12.25
2023-03-03T19:57:39.642Z,12.18
2023-03-03T20:00:14.670Z,11.90
2023-03-03T20:03:07.089Z,13.63
2023-03-03T20:05:54.896Z,11.13
2023-03-03T20:08:23.825Z,13.30
2023-03-03T20:10:59.320Z,12.98
2023-03-03T20:13:25.111Z,12.85
2023-03-03T20:15:56.423Z,11.40
2023-03-03T20:18:22.327Z,11.80
2023-03-03T20:21:01.023Z,12.35
2023-03-03T20:23:39.134Z,12.43
2023-03-03T20:26:14.040Z,11.45
2023-03-03T20:28:46.197Z,12.70
2023-03-03T20:31:18.830Z,12.43
2023-03-03T20:33:44.675Z,11.80
2023-03-03T20:36:16.633Z,11.13
2023-03-03T20:38:48.274Z,12.40
2023-03-03T20:41:22.319Z,12.25
2023-03-03T20:43:48.090Z,12.77
2023-03-03T20:46:22.450Z,10.70
2023-03-03T20:49:03.956Z,9.80
2023-03-03T20:51:29.980Z,11.05
2023-03-03T20:54:21.061Z,10.48
2023-03-03T20:57:00.796Z,10.88
2023-03-03T20:59:26.572Z,10.68
2023-03-03T21:02:04.223Z,10.23
2023-03-03T21:04:36.484Z,12.40
2023-03-03T21:07:03.039Z,11.30
2023-03-03T21:09:36.355Z,12.40
2023-03-03T21:12:10.286Z,12.65
2023-03-03T21:14:36.974Z,12.88
2023-03-03T21:17:23.087Z,11.23
2023-03-03T21:19:48.890Z,11.38
2023-03-03T21:22:15.201Z,13.15
2023-03-03T21:24:48.119Z,12.30
2023-03-03T21:27:43.440Z,15.02
2023-03-03T21:30:09.659Z,13.93
2023-03-03T21:32:36.741Z,14.50
2023-03-03T21:35:08.601Z,13.15
2023-03-03T21:37:43.256Z,14.25
2023-03-03T21:40:13.731Z,14.38
2023-03-03T21:42:40.697Z,14.75
2023-03-03T21:45:10.965Z,16.02
2023-03-03T21:47:36.755Z,15.85
2023-03-03T21:50:02.962Z,14.48
2023-03-03T21:52:28.854Z,16.77
2023-03-03T21:54:54.649Z,15.25
2023-03-03T21:57:20.931Z,14.85
2023-03-03T21:59:46.699Z,16.75
2023-03-03T22:02:12.512Z,17.05
2023-03-03T22:04:50.734Z,15.38
2023-03-03T22:07:16.676Z,15.50
2023-03-03T22:09:42.719Z,16.60
2023-03-03T22:12:08.612Z,17.42
2023-03-03T22:14:34.454Z,14.93
2023-03-03T22:17:00.431Z,15.50
2023-03-03T22:19:26.264Z,15.55
2023-03-03T22:21:52.073Z,16.08
2023-03-03T22:24:18.030Z,17.55
2023-03-03T22:26:43.930Z,15.70
2023-03-03T22:29:09.831Z,16.63
2023-03-03T22:31:35.815Z,14.98
2023-03-03T22:34:07.894Z,14.68
2023-03-03T22:36:33.635Z,15.77
2023-03-03T22:39:00.285Z,15.05
2023-03-03T22:41:26.369Z,16.38
2023-03-03T22:43:52.144Z,14.85
2023-03-03T22:46:17.923Z,16.80
2023-03-03T22:48:44.085Z,15.48
2023-03-03T22:51:09.821Z,14.80
2023-03-03T22:53:35.536Z,15.35
2023-03-03T22:56:01.433Z,14.23
2023-03-03T22:58:28.714Z,15.48
2023-03-03T23:00:54.558Z,15.65
2023-03-03T23:03:20.399Z,15.02
2023-03-03T23:05:46.341Z,14.45
2023-03-03T23:08:13.250Z,16.45
2023-03-03T23:10:39.322Z,15.70
2023-03-03T23:13:05.074Z,15.50
2023-03-03T23:15:31.071Z,16.10
2023-03-03T23:17:56.799Z,14.43
2023-03-03T23:20:23.933Z,15.55
2023-03-03T23:22:49.967Z,15.30
2023-03-03T23:25:16.028Z,16.23
2023-03-03T23:27:42.258Z,15.27
2023-03-03T23:30:08.797Z,14.97
2023-03-03T23:32:34.548Z,17.10
2023-03-03T23:35:00.268Z,15.32
2023-03-03T23:37:26.042Z,16.07
2023-03-03T23:39:51.850Z,15.82
2023-03-03T23:42:17.696Z,17.83
2023-03-03T23:44:44.728Z,15.57
2023-03-03T23:47:10.459Z,16.23
2023-03-03T23:49:36.421Z,16.17
2023-03-03T23:52:02.211Z,16.47
2023-03-03T23:54:27.915Z,16.38
2023-03-03T23:56:54.070Z,17.40
2023-03-03T23:59:19.849Z,20.60
